sensor_id;sensor_type;location;lat;lon;timestamp;temperature;humidity
7684;DHT22;3884;48.616;12.872;2024-02-14T04:15:20;1.00;1.00
7684;DHT22;3884;48.616;12.872;2024-02-14T04:17:48;1.00;1.00
7684;DHT22;3884;48.616;12.872;2024-02-14T04:20:18;0.80;1.00
7684;DHT22;3884;48.616;12.872;2024-02-14T04:22:50;1.40;77.70
7684;DHT22;3884;48.616;12.872;2024-02-14T04:25:18;0.70;99.90
7684;DHT22;3884;48.616;12.872;2024-02-14T04:27:47;0.70;99.90
7684;DHT22;3884;48.616;12.872;2024-02-14T06:39:17;0.70;1.00
7684;DHT22;3884;48.616;12.872;2024-02-14T06:41:48;0.50;99.90
7684;DHT22;3884;48.616;12.872;2024-02-14T06:44:27;0.80;99.90
7684;DHT22;3884;48.616;12.872;2024-02-14T06:47:06;0.90;99.90
7684;DHT22;3884;48.616;12.872;2024-02-14T06:53:31;0.70;99.90
7684;DHT22;3884;48.616;12.872;2024-02-14T06:56:18;0.90;99.90
7684;DHT22;3884;48.616;12.872;2024-02-14T06:58:52;0.90;99.90
7684;DHT22;3884;48.616;12.872;2024-02-14T07:01:39;0.90;99.90
7684;DHT22;3884;48.616;12.872;2024-02-14T07:04:06;1.40;1.00
7684;DHT22;3884;48.616;12.872;2024-02-14T07:06:34;2.30;1.00
7684;DHT22;3884;48.616;12.872;2024-02-14T07:09:03;1.70;1.00
7684;DHT22;3884;48.616;12.872;2024-02-14T07:11:32;2.70;99.90
7684;DHT22;3884;48.616;12.872;2024-02-14T07:13:59;1.30;99.90
7684;DHT22;3884;48.616;12.872;2024-02-14T07:16:27;1.50;99.90
7684;DHT22;3884;48.616;12.872;2024-02-14T07:27:21;1.30;99.90
7684;DHT22;3884;48.616;12.872;2024-02-14T07:37:25;1.60;99.90
7684;DHT22;3884;48.616;12.872;2024-02-14T07:39:52;2.60;99.90
7684;DHT22;3884;48.616;12.872;2024-02-14T07:42:21;1.90;99.90
7684;DHT22;3884;48.616;12.872;2024-02-14T07:44:47;1.80;99.90
7684;DHT22;3884;48.616;12.872;2024-02-14T07:47:14;1.80;99.90
7684;DHT22;3884;48.616;12.872;2024-02-14T07:49:55;1.80;99.90
7684;DHT22;3884;48.616;12.872;2024-02-14T07:52:23;1.90;99.90
7684;DHT22;3884;48.616;12.872;2024-02-14T07:55:04;1.90;99.90
7684;DHT22;3884;48.616;12.872;2024-02-14T07:57:54;2.00;99.90
7684;DHT22;3884;48.616;12.872;2024-02-14T08:00:35;2.00;99.90
7684;DHT22;3884;48.616;12.872;2024-02-14T08:03:18;2.10;99.90
7684;DHT22;3884;48.616;12.872;2024-02-14T08:05:53;2.20;99.90
7684;DHT22;3884;48.616;12.872;2024-02-14T08:08:35;2.10;99.90
7684;DHT22;3884;48.616;12.872;2024-02-14T08:11:15;2.20;99.90
7684;DHT22;3884;48.616;12.872;2024-02-14T08:31:13;2.20;1.00
7684;DHT22;3884;48.616;12.872;2024-02-14T08:33:40;2.80;1.00
7684;DHT22;3884;48.616;12.872;2024-02-14T08:36:07;2.50;1.00
7684;DHT22;3884;48.616;12.872;2024-02-14T08:38:35;3.30;1.00
7684;DHT22;3884;48.616;12.872;2024-02-14T08:41:04;2.60;1.00
7684;DHT22;3884;48.616;12.872;2024-02-14T08:43:33;2.70;99.90
7684;DHT22;3884;48.616;12.872;2024-02-14T08:46:00;2.70;99.90
7684;DHT22;3884;48.616;12.872;2024-02-14T08:48:30;2.80;99.90
7684;DHT22;3884;48.616;12.872;2024-02-14T08:51:01;2.90;99.90
7684;DHT22;3884;48.616;12.872;2024-02-14T08:53:29;3.00;99.90
7684;DHT22;3884;48.616;12.872;2024-02-14T08:55:56;3.20;99.90
7684;DHT22;3884;48.616;12.872;2024-02-14T08:58:23;3.30;99.90
7684;DHT22;3884;48.616;12.872;2024-02-14T09:00:50;3.30;99.90
7684;DHT22;3884;48.616;12.872;2024-02-14T09:03:18;3.40;99.90
7684;DHT22;3884;48.616;12.872;2024-02-14T09:05:46;3.40;99.90
7684;DHT22;3884;48.616;12.872;2024-02-14T09:08:14;3.40;99.90
7684;DHT22;3884;48.616;12.872;2024-02-14T09:10:41;3.30;99.90
7684;DHT22;3884;48.616;12.872;2024-02-14T09:13:08;3.60;1.00
7684;DHT22;3884;48.616;12.872;2024-02-14T09:15:38;3.70;1.00
7684;DHT22;3884;48.616;12.872;2024-02-14T09:19:02;3.80;99.90
7684;DHT22;3884;48.616;12.872;2024-02-14T09:21:33;4.50;20.10
7684;DHT22;3884;48.616;12.872;2024-02-14T09:24:02;4.90;1.00
7684;DHT22;3884;48.616;12.872;2024-02-14T09:26:32;4.40;1.00
7684;DHT22;3884;48.616;12.872;2024-02-14T09:28:59;5.10;99.90
7684;DHT22;3884;48.616;12.872;2024-02-14T09:31:34;5.10;99.90
7684;DHT22;3884;48.616;12.872;2024-02-14T09:34:20;4.20;99.90
7684;DHT22;3884;48.616;12.872;2024-02-14T09:36:52;5.20;99.90
7684;DHT22;3884;48.616;12.872;2024-02-14T09:39:23;5.10;1.00
7684;DHT22;3884;48.616;12.872;2024-02-14T09:42:01;4.80;99.90
7684;DHT22;3884;48.616;12.872;2024-02-14T09:49:11;5.20;99.90
7684;DHT22;3884;48.616;12.872;2024-02-14T09:51:52;4.80;1.00
7684;DHT22;3884;48.616;12.872;2024-02-14T09:58:51;5.30;99.90
7684;DHT22;3884;48.616;12.872;2024-02-14T10:01:23;5.50;99.90
7684;DHT22;3884;48.616;12.872;2024-02-14T10:03:53;5.60;99.90
7684;DHT22;3884;48.616;12.872;2024-02-14T10:06:21;5.80;1.00
7684;DHT22;3884;48.616;12.872;2024-02-14T10:09:04;5.60;99.90
7684;DHT22;3884;48.616;12.872;2024-02-14T10:11:31;6.40;1.00
7684;DHT22;3884;48.616;12.872;2024-02-14T10:17:50;5.80;99.90
7684;DHT22;3884;48.616;12.872;2024-02-14T10:20:17;6.70;1.00
7684;DHT22;3884;48.616;12.872;2024-02-14T10:22:45;6.20;99.90
7684;DHT22;3884;48.616;12.872;2024-02-14T10:25:18;6.30;99.90
7684;DHT22;3884;48.616;12.872;2024-02-14T10:27:47;6.40;99.90
7684;DHT22;3884;48.616;12.872;2024-02-14T10:30:15;7.00;97.70
7684;DHT22;3884;48.616;12.872;2024-02-14T10:32:42;6.70;88.20
7684;DHT22;3884;48.616;12.872;2024-02-14T10:35:15;6.80;1.00
7684;DHT22;3884;48.616;12.872;2024-02-14T10:37:43;7.50;1.00
7684;DHT22;3884;48.616;12.872;2024-02-14T10:40:11;7.30;1.00
7684;DHT22;3884;48.616;12.872;2024-02-14T10:42:44;7.20;1.00
7684;DHT22;3884;48.616;12.872;2024-02-14T10:45:33;7.10;1.00
7684;DHT22;3884;48.616;12.872;2024-02-14T10:48:01;7.60;1.00
7684;DHT22;3884;48.616;12.872;2024-02-14T10:50:48;7.10;1.00
7684;DHT22;3884;48.616;12.872;2024-02-14T11:33:27;7.60;1.00
7684;DHT22;3884;48.616;12.872;2024-02-14T11:47:03;7.50;1.00
7684;DHT22;3884;48.616;12.872;2024-02-14T11:49:32;7.50;1.00
7684;DHT22;3884;48.616;12.872;2024-02-14T11:58:50;7.80;1.00
7684;DHT22;3884;48.616;12.872;2024-02-14T12:01:18;8.00;99.90
7684;DHT22;3884;48.616;12.872;2024-02-14T12:03:45;8.10;99.90
7684;DHT22;3884;48.616;12.872;2024-02-14T12:08:56;8.10;1.00
7684;DHT22;3884;48.616;12.872;2024-02-14T12:11:27;8.60;1.00
7684;DHT22;3884;48.616;12.872;2024-02-14T12:21:18;8.40;1.00
7684;DHT22;3884;48.616;12.872;2024-02-14T12:35:01;8.30;1.00
7684;DHT22;3884;48.616;12.872;2024-02-14T12:38:00;8.00;1.00
7684;DHT22;3884;48.616;12.872;2024-02-14T12:40:41;8.10;99.90
7684;DHT22;3884;48.616;12.872;2024-02-14T12:43:22;8.20;43.90
7684;DHT22;3884;48.616;12.872;2024-02-14T12:46:03;8.10;99.90
7684;DHT22;3884;48.616;12.872;2024-02-14T12:48:31;8.20;99.90
7684;DHT22;3884;48.616;12.872;2024-02-14T12:50:59;8.00;99.90
7684;DHT22;3884;48.616;12.872;2024-02-14T12:53:26;8.10;1.00
7684;DHT22;3884;48.616;12.872;2024-02-14T12:55:53;8.00;99.90
7684;DHT22;3884;48.616;12.872;2024-02-14T12:58:20;8.00;99.90
7684;DHT22;3884;48.616;12.872;2024-02-14T13:00:49;8.00;99.90
7684;DHT22;3884;48.616;12.872;2024-02-14T13:03:20;8.10;99.90
7684;DHT22;3884;48.616;12.872;2024-02-14T13:05:49;8.10;1.00
7684;DHT22;3884;48.616;12.872;2024-02-14T13:08:18;8.10;1.00
7684;DHT22;3884;48.616;12.872;2024-02-14T13:10:45;8.10;1.00
7684;DHT22;3884;48.616;12.872;2024-02-14T13:13:12;8.10;1.00
7684;DHT22;3884;48.616;12.872;2024-02-14T13:15:40;8.30;37.60
7684;DHT22;3884;48.616;12.872;2024-02-14T13:18:09;8.20;1.00
7684;DHT22;3884;48.616;12.872;2024-02-14T13:20:36;8.30;99.90
7684;DHT22;3884;48.616;12.872;2024-02-14T13:23:04;8.20;99.90
7684;DHT22;3884;48.616;12.872;2024-02-14T13:25:36;8.10;99.90
7684;DHT22;3884;48.616;12.872;2024-02-14T13:28:03;8.20;99.90
7684;DHT22;3884;48.616;12.872;2024-02-14T13:30:32;8.20;99.90
7684;DHT22;3884;48.616;12.872;2024-02-14T13:32:58;8.10;99.90
7684;DHT22;3884;48.616;12.872;2024-02-14T13:35:25;7.90;1.00
7684;DHT22;3884;48.616;12.872;2024-02-14T13:37:53;7.80;1.00
7684;DHT22;3884;48.616;12.872;2024-02-14T13:40:21;7.90;1.00
7684;DHT22;3884;48.616;12.872;2024-02-14T13:42:51;7.90;99.90
7684;DHT22;3884;48.616;12.872;2024-02-14T13:45:18;7.90;1.00
7684;DHT22;3884;48.616;12.872;2024-02-14T13:47:45;7.90;99.90
7684;DHT22;3884;48.616;12.872;2024-02-14T13:50:12;7.90;1.00
7684;DHT22;3884;48.616;12.872;2024-02-14T13:52:39;7.80;1.00
7684;DHT22;3884;48.616;12.872;2024-02-14T13:55:07;7.80;99.90
7684;DHT22;3884;48.616;12.872;2024-02-14T13:57:37;7.90;1.00
7684;DHT22;3884;48.616;12.872;2024-02-14T14:00:29;8.20;1.00
7684;DHT22;3884;48.616;12.872;2024-02-14T14:05:19;7.90;1.00
7684;DHT22;3884;48.616;12.872;2024-02-14T14:06:38;7.90;99.90
7684;DHT22;3884;48.616;12.872;2024-02-14T14:09:39;8.00;99.90
7684;DHT22;3884;48.616;12.872;2024-02-14T14:12:27;8.00;99.90
7684;DHT22;3884;48.616;12.872;2024-02-14T14:15:16;8.80;99.90
7684;DHT22;3884;48.616;12.872;2024-02-14T14:43:54;8.20;99.90
7684;DHT22;3884;48.616;12.872;2024-02-14T14:46:28;8.00;1.00
7684;DHT22;3884;48.616;12.872;2024-02-14T14:49:09;7.90;99.90
7684;DHT22;3884;48.616;12.872;2024-02-14T15:02:43;7.70;99.90
7684;DHT22;3884;48.616;12.872;2024-02-14T15:05:11;7.70;99.90
7684;DHT22;3884;48.616;12.872;2024-02-14T15:11:32;7.50;99.90
7684;DHT22;3884;48.616;12.872;2024-02-14T15:14:04;7.60;99.90
7684;DHT22;3884;48.616;12.872;2024-02-14T15:16:45;7.90;1.00
7684;DHT22;3884;48.616;12.872;2024-02-14T15:31:38;7.50;1.00
7684;DHT22;3884;48.616;12.872;2024-02-14T15:34:48;8.60;1.00
7684;DHT22;3884;48.616;12.872;2024-02-14T15:40:05;7.50;1.00
7684;DHT22;3884;48.616;12.872;2024-02-14T15:42:32;7.50;1.00
7684;DHT22;3884;48.616;12.872;2024-02-14T15:44:59;7.40;99.90
7684;DHT22;3884;48.616;12.872;2024-02-14T15:47:28;7.30;1.00
7684;DHT22;3884;48.616;12.872;2024-02-14T15:49:55;7.40;99.90
7684;DHT22;3884;48.616;12.872;2024-02-14T15:52:22;7.40;99.90
7684;DHT22;3884;48.616;12.872;2024-02-14T15:54:49;7.40;1.00
7684;DHT22;3884;48.616;12.872;2024-02-14T15:57:18;7.30;1.00
7684;DHT22;3884;48.616;12.872;2024-02-14T15:59:45;7.30;1.00
7684;DHT22;3884;48.616;12.872;2024-02-14T16:02:12;7.30;1.00
7684;DHT22;3884;48.616;12.872;2024-02-14T16:04:41;7.30;99.90
7684;DHT22;3884;48.616;12.872;2024-02-14T16:07:08;7.30;1.00
7684;DHT22;3884;48.616;12.872;2024-02-14T16:09:35;7.20;1.00
7684;DHT22;3884;48.616;12.872;2024-02-14T16:12:03;7.30;1.00
7684;DHT22;3884;48.616;12.872;2024-02-14T16:14:30;7.30;1.00
7684;DHT22;3884;48.616;12.872;2024-02-14T16:16:58;7.30;1.00
7684;DHT22;3884;48.616;12.872;2024-02-14T16:19:26;7.30;1.00
7684;DHT22;3884;48.616;12.872;2024-02-14T16:21:55;7.20;99.90
7684;DHT22;3884;48.616;12.872;2024-02-14T16:24:24;7.20;1.00
7684;DHT22;3884;48.616;12.872;2024-02-14T16:26:53;7.20;1.00
7684;DHT22;3884;48.616;12.872;2024-02-14T16:29:24;7.20;1.00
7684;DHT22;3884;48.616;12.872;2024-02-14T16:31:51;7.20;54.20
7684;DHT22;3884;48.616;12.872;2024-02-14T16:34:18;7.10;99.90
7684;DHT22;3884;48.616;12.872;2024-02-14T16:36:46;7.10;1.00
7684;DHT22;3884;48.616;12.872;2024-02-14T16:39:17;7.10;1.00
7684;DHT22;3884;48.616;12.872;2024-02-14T16:41:45;7.10;1.00
7684;DHT22;3884;48.616;12.872;2024-02-14T16:44:12;7.10;52.40
7684;DHT22;3884;48.616;12.872;2024-02-14T16:46:53;7.00;1.00
7684;DHT22;3884;48.616;12.872;2024-02-14T16:49:20;7.00;1.00
7684;DHT22;3884;48.616;12.872;2024-02-14T16:51:48;7.00;1.00
7684;DHT22;3884;48.616;12.872;2024-02-14T16:54:17;7.00;99.90
7684;DHT22;3884;48.616;12.872;2024-02-14T16:56:48;7.00;99.90
7684;DHT22;3884;48.616;12.872;2024-02-14T16:59:19;7.10;59.80
7684;DHT22;3884;48.616;12.872;2024-02-14T17:01:50;7.00;1.00
7684;DHT22;3884;48.616;12.872;2024-02-14T17:04:17;7.00;99.90
7684;DHT22;3884;48.616;12.872;2024-02-14T17:10:14;7.10;1.00
7684;DHT22;3884;48.616;12.872;2024-02-14T17:16:32;7.00;1.00
7684;DHT22;3884;48.616;12.872;2024-02-14T17:18:59;6.80;1.00
7684;DHT22;3884;48.616;12.872;2024-02-14T17:21:28;6.80;99.90
7684;DHT22;3884;48.616;12.872;2024-02-14T17:23:55;6.70;1.00
7684;DHT22;3884;48.616;12.872;2024-02-14T17:29:03;6.70;99.90
7684;DHT22;3884;48.616;12.872;2024-02-14T17:31:31;6.60;1.00
7684;DHT22;3884;48.616;12.872;2024-02-14T17:34:02;6.60;1.00
7684;DHT22;3884;48.616;12.872;2024-02-14T17:36:29;6.50;99.90
7684;DHT22;3884;48.616;12.872;2024-02-14T17:38:56;6.50;1.00
7684;DHT22;3884;48.616;12.872;2024-02-14T17:41:25;6.40;99.90
7684;DHT22;3884;48.616;12.872;2024-02-14T17:43:56;6.40;1.00
7684;DHT22;3884;48.616;12.872;2024-02-14T17:46:26;6.40;1.00
7684;DHT22;3884;48.616;12.872;2024-02-14T17:48:54;6.50;18.80
7684;DHT22;3884;48.616;12.872;2024-02-14T17:51:24;6.60;1.00
7684;DHT22;3884;48.616;12.872;2024-02-14T17:53:53;6.60;1.00
7684;DHT22;3884;48.616;12.872;2024-02-14T17:56:20;6.60;1.00
7684;DHT22;3884;48.616;12.872;2024-02-14T17:58:47;6.60;1.00
7684;DHT22;3884;48.616;12.872;2024-02-14T18:01:37;6.60;1.00
7684;DHT22;3884;48.616;12.872;2024-02-14T18:04:17;6.50;99.90
7684;DHT22;3884;48.616;12.872;2024-02-14T18:06:46;6.50;99.90
7684;DHT22;3884;48.616;12.872;2024-02-14T18:09:14;6.60;99.90
7684;DHT22;3884;48.616;12.872;2024-02-14T18:11:55;6.60;99.90
7684;DHT22;3884;48.616;12.872;2024-02-14T18:14:25;6.60;99.90
7684;DHT22;3884;48.616;12.872;2024-02-14T18:20:29;6.60;99.90
7684;DHT22;3884;48.616;12.872;2024-02-14T18:23:00;6.60;54.50
7684;DHT22;3884;48.616;12.872;2024-02-14T18:25:29;6.60;1.00
7684;DHT22;3884;48.616;12.872;2024-02-14T18:28:11;6.50;1.00
7684;DHT22;3884;48.616;12.872;2024-02-14T18:30:53;6.50;1.00
7684;DHT22;3884;48.616;12.872;2024-02-14T18:33:35;6.50;1.00
7684;DHT22;3884;48.616;12.872;2024-02-14T18:39:08;6.50;1.00
7684;DHT22;3884;48.616;12.872;2024-02-14T18:41:35;6.60;1.00
7684;DHT22;3884;48.616;12.872;2024-02-14T18:44:02;6.60;99.90
7684;DHT22;3884;48.616;12.872;2024-02-14T18:46:29;6.60;99.90
7684;DHT22;3884;48.616;12.872;2024-02-14T18:48:56;6.50;1.00
7684;DHT22;3884;48.616;12.872;2024-02-14T18:51:23;6.50;1.00
7684;DHT22;3884;48.616;12.872;2024-02-14T18:53:50;6.50;1.00
7684;DHT22;3884;48.616;12.872;2024-02-14T18:56:21;6.50;1.00
7684;DHT22;3884;48.616;12.872;2024-02-14T18:59:02;6.60;1.00
7684;DHT22;3884;48.616;12.872;2024-02-14T19:01:43;6.60;1.00
7684;DHT22;3884;48.616;12.872;2024-02-14T19:04:11;6.60;1.00
7684;DHT22;3884;48.616;12.872;2024-02-14T19:06:38;6.70;99.90
7684;DHT22;3884;48.616;12.872;2024-02-14T19:09:06;6.70;99.90
7684;DHT22;3884;48.616;12.872;2024-02-14T19:11:38;6.70;99.90
7684;DHT22;3884;48.616;12.872;2024-02-14T19:14:05;6.70;99.90
7684;DHT22;3884;48.616;12.872;2024-02-14T19:16:48;6.80;1.00
7684;DHT22;3884;48.616;12.872;2024-02-14T19:19:17;6.80;99.90
7684;DHT22;3884;48.616;12.872;2024-02-14T19:21:45;6.80;99.90
7684;DHT22;3884;48.616;12.872;2024-02-14T19:24:12;7.20;99.90
7684;DHT22;3884;48.616;12.872;2024-02-14T19:26:55;6.80;54.70
7684;DHT22;3884;48.616;12.872;2024-02-14T19:29:22;6.70;99.90
7684;DHT22;3884;48.616;12.872;2024-02-14T19:31:50;6.80;99.90
7684;DHT22;3884;48.616;12.872;2024-02-14T19:34:17;6.60;1.00
7684;DHT22;3884;48.616;12.872;2024-02-14T19:36:44;7.00;1.00
7684;DHT22;3884;48.616;12.872;2024-02-14T19:39:12;6.50;1.00
7684;DHT22;3884;48.616;12.872;2024-02-14T19:41:40;6.50;1.00
7684;DHT22;3884;48.616;12.872;2024-02-14T19:44:12;6.50;28.90
7684;DHT22;3884;48.616;12.872;2024-02-14T19:46:39;6.50;33.80
7684;DHT22;3884;48.616;12.872;2024-02-14T19:49:07;6.50;88.80
7684;DHT22;3884;48.616;12.872;2024-02-14T19:51:35;6.80;99.90
7684;DHT22;3884;48.616;12.872;2024-02-14T19:54:03;6.50;99.90
7684;DHT22;3884;48.616;12.872;2024-02-14T19:56:30;6.80;99.90
7684;DHT22;3884;48.616;12.872;2024-02-14T19:58:59;6.50;99.90
7684;DHT22;3884;48.616;12.872;2024-02-14T20:01:28;6.60;99.90
7684;DHT22;3884;48.616;12.872;2024-02-14T20:03:55;6.70;67.50
7684;DHT22;3884;48.616;12.872;2024-02-14T20:06:24;6.60;38.50
7684;DHT22;3884;48.616;12.872;2024-02-14T20:08:54;6.70;94.80
7684;DHT22;3884;48.616;12.872;2024-02-14T20:11:24;6.70;78.10
7684;DHT22;3884;48.616;12.872;2024-02-14T20:13:52;6.60;97.50
7684;DHT22;3884;48.616;12.872;2024-02-14T20:16:20;6.50;99.90
7684;DHT22;3884;48.616;12.872;2024-02-14T20:18:48;6.50;99.90
7684;DHT22;3884;48.616;12.872;2024-02-14T20:21:15;6.50;99.90
7684;DHT22;3884;48.616;12.872;2024-02-14T20:23:43;6.50;99.90
7684;DHT22;3884;48.616;12.872;2024-02-14T20:26:10;6.50;99.90
7684;DHT22;3884;48.616;12.872;2024-02-14T20:28:36;6.40;99.90
7684;DHT22;3884;48.616;12.872;2024-02-14T20:31:04;6.40;99.90
7684;DHT22;3884;48.616;12.872;2024-02-14T20:33:31;6.40;99.90
7684;DHT22;3884;48.616;12.872;2024-02-14T20:35:59;6.30;99.90
7684;DHT22;3884;48.616;12.872;2024-02-14T20:38:26;6.30;99.90
7684;DHT22;3884;48.616;12.872;2024-02-14T20:40:53;6.30;99.90
7684;DHT22;3884;48.616;12.872;2024-02-14T20:43:20;6.30;99.90
7684;DHT22;3884;48.616;12.872;2024-02-14T20:45:47;6.20;99.90
7684;DHT22;3884;48.616;12.872;2024-02-14T20:48:14;6.20;99.90
7684;DHT22;3884;48.616;12.872;2024-02-14T20:50:41;6.10;1.00
7684;DHT22;3884;48.616;12.872;2024-02-14T20:53:10;6.10;1.00
7684;DHT22;3884;48.616;12.872;2024-02-14T20:55:37;6.20;1.00
7684;DHT22;3884;48.616;12.872;2024-02-14T20:58:04;6.20;1.00
7684;DHT22;3884;48.616;12.872;2024-02-14T21:00:32;6.20;1.00
7684;DHT22;3884;48.616;12.872;2024-02-14T21:03:00;6.20;1.00
7684;DHT22;3884;48.616;12.872;2024-02-14T21:05:27;6.20;1.00
7684;DHT22;3884;48.616;12.872;2024-02-14T21:07:54;6.30;1.00
7684;DHT22;3884;48.616;12.872;2024-02-14T21:10:22;6.40;99.90
7684;DHT22;3884;48.616;12.872;2024-02-14T21:12:49;6.30;99.90
7684;DHT22;3884;48.616;12.872;2024-02-14T21:15:16;6.20;99.90
7684;DHT22;3884;48.616;12.872;2024-02-14T21:17:43;6.20;1.00
7684;DHT22;3884;48.616;12.872;2024-02-14T21:20:11;6.20;99.90
7684;DHT22;3884;48.616;12.872;2024-02-14T21:22:38;6.10;99.90
7684;DHT22;3884;48.616;12.872;2024-02-14T21:25:05;6.30;99.90
7684;DHT22;3884;48.616;12.872;2024-02-14T21:27:37;6.20;99.90
7684;DHT22;3884;48.616;12.872;2024-02-14T21:30:05;6.20;99.90
7684;DHT22;3884;48.616;12.872;2024-02-14T21:32:32;6.20;99.90
7684;DHT22;3884;48.616;12.872;2024-02-14T21:34:59;6.10;99.90
7684;DHT22;3884;48.616;12.872;2024-02-14T21:37:26;6.10;99.90
7684;DHT22;3884;48.616;12.872;2024-02-14T21:39:53;5.90;99.90
7684;DHT22;3884;48.616;12.872;2024-02-14T21:42:20;6.10;99.90
7684;DHT22;3884;48.616;12.872;2024-02-14T21:44:48;6.10;99.90
7684;DHT22;3884;48.616;12.872;2024-02-14T21:47:15;6.10;1.00
7684;DHT22;3884;48.616;12.872;2024-02-14T21:49:42;6.00;1.00
7684;DHT22;3884;48.616;12.872;2024-02-14T21:52:10;6.00;1.00
7684;DHT22;3884;48.616;12.872;2024-02-14T21:54:38;6.10;1.00
7684;DHT22;3884;48.616;12.872;2024-02-14T21:57:06;6.10;1.00
7684;DHT22;3884;48.616;12.872;2024-02-14T21:59:33;6.10;1.00
7684;DHT22;3884;48.616;12.872;2024-02-14T22:02:01;6.20;1.00
7684;DHT22;3884;48.616;12.872;2024-02-14T22:04:28;6.10;1.00
7684;DHT22;3884;48.616;12.872;2024-02-14T22:06:55;6.20;1.00
7684;DHT22;3884;48.616;12.872;2024-02-14T22:09:22;6.20;99.90
7684;DHT22;3884;48.616;12.872;2024-02-14T22:11:50;6.30;99.90
7684;DHT22;3884;48.616;12.872;2024-02-14T22:14:17;6.20;99.90
7684;DHT22;3884;48.616;12.872;2024-02-14T22:16:44;6.20;1.00
7684;DHT22;3884;48.616;12.872;2024-02-14T22:19:12;6.20;1.00
7684;DHT22;3884;48.616;12.872;2024-02-14T22:21:39;6.10;1.00
7684;DHT22;3884;48.616;12.872;2024-02-14T22:24:06;6.20;1.00
7684;DHT22;3884;48.616;12.872;2024-02-14T22:26:35;6.40;1.00
7684;DHT22;3884;48.616;12.872;2024-02-14T22:29:02;6.10;1.00
7684;DHT22;3884;48.616;12.872;2024-02-14T22:31:29;6.10;1.00
7684;DHT22;3884;48.616;12.872;2024-02-14T22:33:56;6.00;1.00
7684;DHT22;3884;48.616;12.872;2024-02-14T22:36:26;6.00;1.00
7684;DHT22;3884;48.616;12.872;2024-02-14T22:38:53;6.00;1.00
7684;DHT22;3884;48.616;12.872;2024-02-14T22:41:20;6.00;1.00
7684;DHT22;3884;48.616;12.872;2024-02-14T22:43:47;6.00;1.00
7684;DHT22;3884;48.616;12.872;2024-02-14T22:46:15;6.00;1.00
7684;DHT22;3884;48.616;12.872;2024-02-14T22:48:43;6.00;1.00
7684;DHT22;3884;48.616;12.872;2024-02-14T22:51:10;6.10;1.00
7684;DHT22;3884;48.616;12.872;2024-02-14T22:53:38;6.10;1.00
7684;DHT22;3884;48.616;12.872;2024-02-14T22:56:06;5.90;1.00
7684;DHT22;3884;48.616;12.872;2024-02-14T22:58:35;6.00;1.00
7684;DHT22;3884;48.616;12.872;2024-02-14T23:01:03;6.10;1.00
7684;DHT22;3884;48.616;12.872;2024-02-14T23:03:30;6.10;1.00
7684;DHT22;3884;48.616;12.872;2024-02-14T23:05:58;6.40;1.00
7684;DHT22;3884;48.616;12.872;2024-02-14T23:08:25;6.10;1.00
7684;DHT22;3884;48.616;12.872;2024-02-14T23:10:54;6.20;1.00
7684;DHT22;3884;48.616;12.872;2024-02-14T23:13:21;6.20;1.00
7684;DHT22;3884;48.616;12.872;2024-02-14T23:15:48;6.30;1.00
7684;DHT22;3884;48.616;12.872;2024-02-14T23:18:17;6.20;1.00
7684;DHT22;3884;48.616;12.872;2024-02-14T23:20:44;6.30;1.00
7684;DHT22;3884;48.616;12.872;2024-02-14T23:23:11;6.30;1.00
7684;DHT22;3884;48.616;12.872;2024-02-14T23:25:38;6.20;1.00
7684;DHT22;3884;48.616;12.872;2024-02-14T23:28:08;6.10;1.00
7684;DHT22;3884;48.616;12.872;2024-02-14T23:30:35;6.10;1.00
7684;DHT22;3884;48.616;12.872;2024-02-14T23:33:05;6.30;1.00
7684;DHT22;3884;48.616;12.872;2024-02-14T23:35:37;6.10;1.00
7684;DHT22;3884;48.616;12.872;2024-02-14T23:38:04;6.00;1.00
7684;DHT22;3884;48.616;12.872;2024-02-14T23:40:31;6.10;1.00
7684;DHT22;3884;48.616;12.872;2024-02-14T23:42:58;6.00;1.00
7684;DHT22;3884;48.616;12.872;2024-02-14T23:45:27;6.00;1.00
7684;DHT22;3884;48.616;12.872;2024-02-14T23:47:55;6.10;1.00
7684;DHT22;3884;48.616;12.872;2024-02-14T23:50:23;6.00;1.00
7684;DHT22;3884;48.616;12.872;2024-02-14T23:52:53;6.10;1.00
7684;DHT22;3884;48.616;12.872;2024-02-14T23:55:20;6.10;1.00
7684;DHT22;3884;48.616;12.872;2024-02-14T23:57:48;6.00;1.00
